Time;durP1;ratioP1;P1;durP2;ratioP2;P2;SDS_P1;SDS_P2;PMS_P1;PMS_P2;Temp;Humidity;BMP_temperature;BMP_pressure;BME280_temperature;BME280_humidity;BME280_pressure;Samples;Min_cycle;Max_cycle;Signal;HPM_P1;HPM_P2
2022/09/13 00:00:55;;;;;;;3.55;2.50;;;;;;;;;;4987274;28;20069;-84
2022/09/13 00:03:20;;;;;;;4.57;2.90;;;;;;;;;;4988428;28;20066;-83
2022/09/13 00:05:46;;;;;;;4.65;2.80;;;;;;;;;;4987477;28;20046;-84
2022/09/13 00:08:14;;;;;;;6.65;2.60;;;;;;;;;;4998525;28;20516;-84
2022/09/13 00:10:42;;;;;;;4.45;2.55;;;;;;;;;;4987761;28;20447;-83
2022/09/13 00:13:09;;;;;;;3.88;2.42;;;;;;;;;;4991661;28;20708;-84
2022/09/13 00:15:34;;;;;;;4.72;2.72;;;;;;;;;;5007471;28;20030;-84
2022/09/13 00:18:00;;;;;;;4.35;2.47;;;;;;;;;;5002049;28;20083;-84
2022/09/13 00:20:26;;;;;;;3.70;2.40;;;;;;;;;;4992093;28;20049;-85
2022/09/13 00:22:51;;;;;;;4.88;2.35;;;;;;;;;;5001056;28;20069;-85
2022/09/13 00:25:17;;;;;;;4.18;2.60;;;;;;;;;;5002739;28;20497;-85
2022/09/13 00:27:43;;;;;;;4.65;2.45;;;;;;;;;;4984452;28;20042;-84
2022/09/13 00:30:10;;;;;;;3.78;2.63;;;;;;;;;;4993190;28;20045;-84
2022/09/13 00:32:36;;;;;;;3.70;2.40;;;;;;;;;;5006900;28;20454;-85
2022/09/13 00:35:03;;;;;;;4.30;2.30;;;;;;;;;;5008603;28;20485;-85
2022/09/13 00:37:29;;;;;;;4.40;2.85;;;;;;;;;;4991824;28;20040;-84
2022/09/13 00:39:54;;;;;;;5.70;2.47;;;;;;;;;;5008313;28;20042;-86
2022/09/13 00:42:25;;;;;;;5.72;2.60;;;;;;;;;;4990559;28;20567;-84
2022/09/13 00:44:56;;;;;;;3.65;2.47;;;;;;;;;;4991636;28;20030;-84
2022/09/13 00:47:50;;;;;;;4.20;2.15;;;;;;;;;;5007702;28;20052;-84
2022/09/13 00:50:25;;;;;;;3.83;2.30;;;;;;;;;;5007723;28;20041;-85
2022/09/13 00:52:57;;;;;;;3.65;2.45;;;;;;;;;;5023408;28;20034;-85
2022/09/13 00:55:55;;;;;;;4.57;2.53;;;;;;;;;;5006584;28;20038;-85
2022/09/13 00:58:25;;;;;;;4.57;2.55;;;;;;;;;;4991482;28;20046;-85
2022/09/13 01:00:52;;;;;;;5.43;3.00;;;;;;;;;;4998801;28;20030;-85
2022/09/13 01:03:20;;;;;;;4.10;2.70;;;;;;;;;;4993395;28;20156;-84
2022/09/13 01:05:50;;;;;;;4.90;3.00;;;;;;;;;;4989387;28;20477;-84
2022/09/13 01:08:21;;;;;;;3.85;2.70;;;;;;;;;;4990575;28;20037;-84
2022/09/13 01:10:48;;;;;;;4.50;2.83;;;;;;;;;;5007415;28;20034;-84
2022/09/13 01:13:24;;;;;;;3.72;2.70;;;;;;;;;;4993762;28;20539;-85
2022/09/13 01:15:50;;;;;;;5.22;2.90;;;;;;;;;;5004773;28;20077;-85
2022/09/13 01:18:19;;;;;;;4.32;3.15;;;;;;;;;;4996621;28;20646;-85
2022/09/13 01:21:02;;;;;;;5.30;3.03;;;;;;;;;;4985478;28;20092;-84
2022/09/13 01:23:52;;;;;;;3.97;3.00;;;;;;;;;;5007482;28;20438;-83
2022/09/13 01:26:36;;;;;;;5.75;2.88;;;;;;;;;;5001276;28;20030;-84
2022/09/13 01:29:43;;;;;;;5.28;2.90;;;;;;;;;;5007965;28;20036;-85
2022/09/13 01:32:15;;;;;;;4.20;2.90;;;;;;;;;;5014990;28;20065;-85
2022/09/13 01:34:50;;;;;;;5.15;3.13;;;;;;;;;;4990291;28;20141;-84
2022/09/13 01:37:40;;;;;;;4.60;3.10;;;;;;;;;;4997241;28;20385;-85
2022/09/13 01:40:31;;;;;;;4.82;3.17;;;;;;;;;;5006202;28;20124;-84
2022/09/13 01:43:25;;;;;;;5.82;2.88;;;;;;;;;;5005791;28;20038;-85
2022/09/13 01:46:12;;;;;;;5.18;2.90;;;;;;;;;;4985444;28;20120;-85
2022/09/13 01:49:14;;;;;;;4.82;2.90;;;;;;;;;;4989367;28;20128;-84
2022/09/13 01:52:32;;;;;;;5.65;3.00;;;;;;;;;;4993486;28;20512;-85
2022/09/13 01:55:07;;;;;;;5.53;3.17;;;;;;;;;;4964815;28;20038;-84
2022/09/13 01:58:04;;;;;;;4.55;3.08;;;;;;;;;;5002156;28;20038;-85
2022/09/13 02:00:35;;;;;;;4.35;3.22;;;;;;;;;;4980932;28;20080;-85
2022/09/13 02:03:06;;;;;;;4.88;3.60;;;;;;;;;;5020887;28;20074;-85
2022/09/13 02:05:43;;;;;;;4.85;3.53;;;;;;;;;;4997832;28;20543;-84
2022/09/13 02:08:11;;;;;;;;;;;;;;;;;;4999052;28;20045;-84
2022/09/13 02:10:40;;;;;;;4.97;3.30;;;;;;;;;;5006357;28;19936;-83
2022/09/13 02:13:12;;;;;;;4.43;3.00;;;;;;;;;;4991782;28;20066;-84
2022/09/13 02:15:41;;;;;;;4.47;3.33;;;;;;;;;;4989566;28;20025;-85
2022/09/13 02:18:14;;;;;;;5.20;2.90;;;;;;;;;;4989853;28;20496;-85
2022/09/13 02:20:43;;;;;;;6.03;3.20;;;;;;;;;;4987696;28;20497;-86
2022/09/13 02:23:21;;;;;;;4.60;3.00;;;;;;;;;;4988418;28;20041;-85
2022/09/13 02:25:47;;;;;;;6.40;3.17;;;;;;;;;;4984385;28;20036;-85
2022/09/13 02:28:18;;;;;;;4.95;3.67;;;;;;;;;;4984239;28;20148;-86
2022/09/13 02:30:48;;;;;;;5.03;3.33;;;;;;;;;;4994272;28;20499;-84
2022/09/13 02:33:32;;;;;;;4.72;3.60;;;;;;;;;;5005088;28;20042;-84
2022/09/13 02:36:06;;;;;;;6.20;3.38;;;;;;;;;;4988806;28;20033;-84
2022/09/13 02:38:44;;;;;;;5.03;3.40;;;;;;;;;;5002303;28;20711;-84
2022/09/13 02:41:19;;;;;;;4.80;3.50;;;;;;;;;;4989047;28;20535;-83
2022/09/13 02:43:49;;;;;;;4.88;2.97;;;;;;;;;;4986919;28;20509;-84
2022/09/13 02:46:34;;;;;;;6.35;3.38;;;;;;;;;;4990202;28;20071;-84
2022/09/13 02:49:28;;;;;;;5.38;3.30;;;;;;;;;;5004969;28;20158;-85
2022/09/13 02:52:11;;;;;;;4.45;3.40;;;;;;;;;;4988642;28;20033;-83
2022/09/13 02:55:17;;;;;;;5.82;3.28;;;;;;;;;;4989810;28;20045;-83
2022/09/13 02:57:52;;;;;;;3.95;2.92;;;;;;;;;;4985859;28;20437;-84
2022/09/13 03:00:18;;;;;;;4.30;3.13;;;;;;;;;;4982844;28;20029;-85
2022/09/13 03:02:44;;;;;;;4.97;3.30;;;;;;;;;;4990075;28;20079;-85
2022/09/13 03:05:10;;;;;;;8.38;3.50;;;;;;;;;;5003358;28;20041;-86
2022/09/13 03:07:35;;;;;;;9.20;3.28;;;;;;;;;;5004891;28;20401;-85
2022/09/13 03:10:07;;;;;;;4.30;3.40;;;;;;;;;;5002081;28;20381;-86
2022/09/13 03:13:04;;;;;;;5.03;3.40;;;;;;;;;;4996444;28;20038;-84
2022/09/13 03:16:03;;;;;;;4.90;3.55;;;;;;;;;;4995438;28;20034;-85
2022/09/13 03:18:31;;;;;;;5.53;3.75;;;;;;;;;;4988925;28;20041;-84
2022/09/13 03:21:21;;;;;;;4.15;3.13;;;;;;;;;;5004420;28;20065;-85
2022/09/13 03:23:59;;;;;;;5.35;3.63;;;;;;;;;;5005484;28;20046;-85
2022/09/13 03:27:03;;;;;;;4.88;3.40;;;;;;;;;;4991805;28;20042;-84
2022/09/13 03:29:36;;;;;;;4.88;3.60;;;;;;;;;;5007572;28;20050;-84
2022/09/13 03:32:22;;;;;;;4.90;3.70;;;;;;;;;;5011982;28;20041;-85
2022/09/13 03:35:18;;;;;;;5.72;3.80;;;;;;;;;;5004172;28;20370;-84
2022/09/13 03:38:08;;;;;;;5.38;3.50;;;;;;;;;;4989561;28;20125;-85
2022/09/13 03:40:54;;;;;;;7.53;3.63;;;;;;;;;;5003225;28;20034;-83
2022/09/13 03:43:29;;;;;;;5.45;3.63;;;;;;;;;;4988414;28;20486;-84
2022/09/13 03:45:58;;;;;;;6.20;3.55;;;;;;;;;;4990293;28;20033;-83
2022/09/13 03:48:24;;;;;;;5.82;3.80;;;;;;;;;;4993409;28;20057;-84
2022/09/13 03:50:50;;;;;;;5.10;3.53;;;;;;;;;;4989121;28;20093;-84
2022/09/13 03:53:22;;;;;;;5.43;3.97;;;;;;;;;;4986090;28;20074;-83
2022/09/13 03:55:48;;;;;;;5.38;3.80;;;;;;;;;;4992693;28;20458;-83
2022/09/13 03:58:16;;;;;;;5.65;3.53;;;;;;;;;;5009825;28;20125;-85
2022/09/13 04:00:43;;;;;;;4.95;3.72;;;;;;;;;;5007844;28;20394;-85
2022/09/13 04:03:12;;;;;;;5.22;3.88;;;;;;;;;;5007049;28;20498;-85
2022/09/13 04:05:38;;;;;;;6.72;4.10;;;;;;;;;;5007063;28;20042;-85
2022/09/13 04:08:04;;;;;;;5.82;4.00;;;;;;;;;;4986795;28;20045;-86
2022/09/13 04:10:31;;;;;;;5.70;4.40;;;;;;;;;;4991687;28;20049;-86
2022/09/13 04:12:58;;;;;;;7.90;4.82;;;;;;;;;;5000689;28;20049;-85
2022/09/13 04:15:23;;;;;;;5.72;4.07;;;;;;;;;;4984331;28;20125;-90
2022/09/13 04:17:49;;;;;;;5.72;3.75;;;;;;;;;;4993392;28;20117;-88
2022/09/13 04:20:14;;;;;;;6.47;4.07;;;;;;;;;;4993042;28;20033;-88
2022/09/13 04:22:41;;;;;;;6.13;4.05;;;;;;;;;;4982979;28;20501;-87
2022/09/13 04:25:06;;;;;;;5.55;4.30;;;;;;;;;;4989056;28;20048;-88
2022/09/13 04:27:32;;;;;;;6.88;4.28;;;;;;;;;;5002723;28;20097;-88
2022/09/13 04:29:57;;;;;;;6.45;4.18;;;;;;;;;;4993871;28;20038;-88
2022/09/13 04:32:23;;;;;;;7.15;4.40;;;;;;;;;;4991960;28;20393;-88
2022/09/13 04:34:48;;;;;;;5.82;4.25;;;;;;;;;;4992034;28;20033;-88
2022/09/13 04:37:14;;;;;;;7.40;4.07;;;;;;;;;;4997344;28;20058;-85
2022/09/13 04:39:39;;;;;;;6.53;4.60;;;;;;;;;;4987672;28;20088;-89
2022/09/13 04:42:06;;;;;;;5.43;4.38;;;;;;;;;;4998170;28;20046;-87
2022/09/13 04:44:32;;;;;;;5.07;4.22;;;;;;;;;;4990447;28;20061;-88
2022/09/13 04:46:57;;;;;;;6.20;4.50;;;;;;;;;;5008286;28;20034;-89
2022/09/13 04:49:22;;;;;;;5.68;4.18;;;;;;;;;;5001052;28;20112;-89
2022/09/13 04:51:48;;;;;;;7.70;4.82;;;;;;;;;;4994585;28;20045;-86
2022/09/13 04:54:14;;;;;;;7.57;5.05;;;;;;;;;;4982563;28;20030;-87
2022/09/13 04:56:39;;;;;;;6.50;4.70;;;;;;;;;;5025256;28;20493;-87
2022/09/13 04:59:05;;;;;;;6.47;4.22;;;;;;;;;;4990864;28;20041;-88
2022/09/13 05:01:31;;;;;;;6.38;4.28;;;;;;;;;;4991643;28;20056;-87
2022/09/13 05:03:57;;;;;;;6.47;4.90;;;;;;;;;;5000867;28;20475;-87
2022/09/13 05:06:22;;;;;;;5.43;4.32;;;;;;;;;;4990783;28;20046;-83
2022/09/13 05:08:54;;;;;;;6.32;4.43;;;;;;;;;;4975603;28;20125;-81
2022/09/13 05:11:23;;;;;;;10.20;5.30;;;;;;;;;;4995267;28;20388;-81
2022/09/13 05:13:54;;;;;;;7.15;4.20;;;;;;;;;;5014042;28;20041;-82
2022/09/13 05:16:20;;;;;;;6.18;4.60;;;;;;;;;;4999567;28;20022;-84
2022/09/13 05:18:45;;;;;;;6.47;4.70;;;;;;;;;;4990819;28;20046;-86
2022/09/13 05:21:11;;;;;;;7.15;4.93;;;;;;;;;;5008600;28;20052;-86
2022/09/13 05:23:37;;;;;;;6.28;4.45;;;;;;;;;;4985347;28;20136;-83
2022/09/13 05:26:04;;;;;;;7.05;4.60;;;;;;;;;;4998889;28;20545;-83
2022/09/13 05:28:32;;;;;;;6.47;4.78;;;;;;;;;;4990532;28;20050;-84
2022/09/13 05:31:00;;;;;;;6.45;4.78;;;;;;;;;;4987170;28;20030;-85
2022/09/13 05:33:30;;;;;;;8.27;4.55;;;;;;;;;;4988734;28;20049;-83
2022/09/13 05:35:56;;;;;;;8.15;4.50;;;;;;;;;;4988508;28;20493;-85
2022/09/13 05:38:22;;;;;;;5.82;4.70;;;;;;;;;;4988122;28;20046;-84
2022/09/13 05:40:55;;;;;;;6.88;4.72;;;;;;;;;;5004230;28;20053;-84
2022/09/13 05:43:20;;;;;;;6.55;4.45;;;;;;;;;;5005206;28;20041;-84
2022/09/13 05:45:45;;;;;;;6.60;4.45;;;;;;;;;;4981954;28;20034;-84
2022/09/13 05:48:12;;;;;;;6.53;4.85;;;;;;;;;;5004087;28;20037;-85
2022/09/13 05:50:38;;;;;;;6.95;4.55;;;;;;;;;;4991638;28;20044;-85
2022/09/13 05:53:03;;;;;;;8.77;5.53;;;;;;;;;;4991018;28;20042;-86
2022/09/13 05:55:29;;;;;;;8.93;5.97;;;;;;;;;;4999903;28;20033;-87
2022/09/13 05:57:55;;;;;;;10.45;6.28;;;;;;;;;;5006030;28;20026;-86
2022/09/13 06:00:20;;;;;;;10.35;6.80;;;;;;;;;;4990347;28;20049;-87
2022/09/13 06:02:49;;;;;;;9.02;7.32;;;;;;;;;;4990857;28;20041;-88
2022/09/13 06:05:14;;;;;;;12.52;7.25;;;;;;;;;;5021696;28;20034;-87
2022/09/13 06:07:40;;;;;;;11.48;7.63;;;;;;;;;;4990875;28;20404;-86
2022/09/13 06:10:07;;;;;;;10.00;7.72;;;;;;;;;;4989668;28;20033;-86
2022/09/13 06:12:33;;;;;;;10.70;7.43;;;;;;;;;;4981158;28;20594;-86
2022/09/13 06:15:02;;;;;;;12.00;9.00;;;;;;;;;;5002066;28;20056;-85
2022/09/13 06:17:28;;;;;;;12.85;8.25;;;;;;;;;;4980896;28;20042;-87
2022/09/13 06:19:55;;;;;;;12.20;8.40;;;;;;;;;;4984402;28;20037;-87
2022/09/13 06:22:21;;;;;;;14.10;8.68;;;;;;;;;;4964770;28;20048;-85
2022/09/13 06:24:47;;;;;;;12.18;8.63;;;;;;;;;;4977311;28;20045;-85
2022/09/13 06:27:13;;;;;;;11.50;8.55;;;;;;;;;;4985396;28;20091;-86
2022/09/13 06:29:38;;;;;;;15.18;9.00;;;;;;;;;;5008859;28;20034;-85
2022/09/13 06:32:04;;;;;;;13.30;8.88;;;;;;;;;;5007764;28;20030;-86
2022/09/13 06:35:01;;;;;;;11.60;9.18;;;;;;;;;;4985194;28;20049;-87
2022/09/13 06:37:27;;;;;;;11.52;8.63;;;;;;;;;;4997176;28;20064;-84
2022/09/13 06:39:53;;;;;;;13.95;9.63;;;;;;;;;;4987577;28;20044;-85
2022/09/13 06:46:09;;;;;;;12.70;9.13;;;;;;;;;;4939871;28;21369;-85
2022/09/13 06:49:10;;;;;;;12.38;9.23;;;;;;;;;;4945026;28;20043;-84
2022/09/13 06:55:11;;;;;;;13.77;10.27;;;;;;;;;;4924534;29;20102;-84
2022/09/13 06:58:11;;;;;;;15.70;10.00;;;;;;;;;;4876289;28;20039;-85
2022/09/13 07:01:25;;;;;;;13.75;9.80;;;;;;;;;;4897562;29;20664;-86
2022/09/13 07:04:02;;;;;;;12.73;8.68;;;;;;;;;;4912291;28;20063;-80
2022/09/13 07:06:30;;;;;;;12.25;9.65;;;;;;;;;;4922259;28;20064;-80
2022/09/13 07:08:57;;;;;;;14.35;9.20;;;;;;;;;;4948961;28;20049;-79
2022/09/13 07:11:28;;;;;;;13.00;10.18;;;;;;;;;;4956989;28;20802;-84
2022/09/13 07:21:18;;;;;;;15.27;10.07;;;;;;;;;;4873585;29;20575;-86
2022/09/13 07:24:09;;;;;;;12.02;9.23;;;;;;;;;;4883355;28;20043;-85
2022/09/13 07:26:35;;;;;;;12.82;9.45;;;;;;;;;;4865834;29;20039;-85
2022/09/13 07:29:58;;;;;;;;;;;;;;;;;;;;;
2022/09/13 07:32:46;;;;;;;14.43;9.52;;;;;;;;;;4900134;28;20055;-83
2022/09/13 07:35:24;;;;;;;14.43;9.43;;;;;;;;;;4897133;28;20534;-84
2022/09/13 07:38:00;;;;;;;;;;;;;;;;;;;;;
2022/09/13 07:40:34;;;;;;;12.07;8.88;;;;;;;;;;4899650;28;20042;-84
2022/09/13 07:43:01;;;;;;;15.52;8.40;;;;;;;;;;4930564;29;20035;-82
2022/09/13 07:45:49;;;;;;;;;;;;;;;;;;4854281;28;20080;-85
2022/09/13 07:48:50;;;;;;;11.93;8.32;;;;;;;;;;4898387;28;19918;-85
2022/09/13 07:51:57;;;;;;;13.23;8.90;;;;;;;;;;4915932;28;20496;-84
2022/09/13 07:54:23;;;;;;;13.55;8.52;;;;;;;;;;4958597;28;20055;-83
2022/09/13 07:56:57;;;;;;;15.07;9.10;;;;;;;;;;4967710;28;20049;-83
2022/09/13 07:59:57;;;;;;;11.77;8.45;;;;;;;;;;4977593;28;20599;-83
2022/09/13 08:02:28;;;;;;;10.95;8.80;;;;;;;;;;4932792;28;20034;-83
2022/09/13 08:05:19;;;;;;;13.52;9.18;;;;;;;;;;4939221;28;20046;-83
2022/09/13 08:07:45;;;;;;;11.02;8.38;;;;;;;;;;4918963;28;20038;-83
2022/09/13 08:10:13;;;;;;;12.32;8.45;;;;;;;;;;5001839;28;20038;-85
2022/09/13 08:12:38;;;;;;;11.25;8.13;;;;;;;;;;4959465;28;20034;-83
2022/09/13 08:15:36;;;;;;;11.25;8.05;;;;;;;;;;4951577;28;20129;-83
2022/09/13 08:18:28;;;;;;;10.15;7.68;;;;;;;;;;4963179;28;20048;-83
2022/09/13 08:20:58;;;;;;;13.73;8.05;;;;;;;;;;4948049;28;20048;-86
2022/09/13 08:23:24;;;;;;;11.40;7.63;;;;;;;;;;4996330;28;20037;-83
2022/09/13 08:26:02;;;;;;;9.30;7.28;;;;;;;;;;4978591;28;20045;-86
2022/09/13 08:28:30;;;;;;;15.40;9.10;;;;;;;;;;4980819;28;20140;-83
2022/09/13 08:31:19;;;;;;;;;;;;;;;;;;4975701;28;20485;-82
2022/09/13 08:33:46;;;;;;;11.52;7.35;;;;;;;;;;4967206;28;20012;-84
2022/09/13 08:36:11;;;;;;;12.30;7.70;;;;;;;;;;4996771;28;20093;-83
2022/09/13 08:39:33;;;;;;;10.38;7.63;;;;;;;;;;4975245;28;20376;-87
2022/09/13 08:42:44;;;;;;;10.73;7.57;;;;;;;;;;4921315;28;20047;-85
2022/09/13 08:45:13;;;;;;;8.68;6.82;;;;;;;;;;4973335;28;20034;-87
2022/09/13 08:48:01;;;;;;;12.13;7.07;;;;;;;;;;4964024;28;20403;-84
2022/09/13 08:53:47;;;;;;;9.77;6.53;;;;;;;;;;4934772;28;20069;-86
2022/09/13 08:56:20;;;;;;;10.35;6.20;;;;;;;;;;4960212;28;20038;-82
2022/09/13 08:59:09;;;;;;;7.65;5.60;;;;;;;;;;4973437;28;20067;-86
2022/09/13 09:02:48;;;;;;;8.50;5.90;;;;;;;;;;4928910;28;20042;-83
2022/09/13 09:05:31;;;;;;;7.25;5.13;;;;;;;;;;4882504;29;20941;-84
2022/09/13 09:12:31;;;;;;;7.45;5.25;;;;;;;;;;4822550;29;20252;-85
2022/09/13 09:22:17;;;;;;;7.05;4.47;;;;;;;;;;4757344;29;20116;-83
2022/09/13 09:25:50;;;;;;;6.18;4.00;;;;;;;;;;4758166;29;20275;-85
2022/09/13 09:28:22;;;;;;;5.95;4.47;;;;;;;;;;4716675;29;20043;-85
2022/09/13 09:31:27;;;;;;;6.28;4.45;;;;;;;;;;4747756;29;20046;-84
2022/09/13 09:34:41;;;;;;;6.38;4.47;;;;;;;;;;4748792;29;20052;-84
2022/09/13 09:37:28;;;;;;;5.85;4.03;;;;;;;;;;4748580;29;20126;-84
2022/09/13 09:39:54;;;;;;;;;;;;;;;;;;4762644;29;20051;-84
2022/09/13 09:42:23;;;;;;;6.57;4.57;;;;;;;;;;4779391;29;20405;-84
2022/09/13 09:45:04;;;;;;;7.90;4.80;;;;;;;;;;4781930;29;20036;-86
2022/09/13 09:47:42;;;;;;;8.10;5.10;;;;;;;;;;4792417;29;20044;-86
2022/09/13 09:50:10;;;;;;;;;;;;;;;;;;4853426;29;20045;-86
2022/09/13 09:52:50;;;;;;;6.72;4.32;;;;;;;;;;4920060;29;19918;-86
2022/09/13 09:55:31;;;;;;;6.70;4.40;;;;;;;;;;4929499;28;20109;-86
2022/09/13 09:58:07;;;;;;;7.70;3.95;;;;;;;;;;4923814;28;20091;-86
2022/09/13 10:00:55;;;;;;;6.32;4.18;;;;;;;;;;4959669;28;20145;-86
2022/09/13 10:03:26;;;;;;;6.22;4.18;;;;;;;;;;4976925;28;20030;-87
2022/09/13 10:06:04;;;;;;;5.78;4.10;;;;;;;;;;5005860;28;20136;-84
2022/09/13 10:08:32;;;;;;;6.47;4.43;;;;;;;;;;5005120;28;20084;-85
2022/09/13 10:10:59;;;;;;;5.55;3.85;;;;;;;;;;4978803;28;20038;-87
2022/09/13 10:13:25;;;;;;;6.07;4.03;;;;;;;;;;4988165;28;20041;-88
2022/09/13 10:16:22;;;;;;;6.32;4.30;;;;;;;;;;4989235;28;20086;-88
2022/09/13 10:18:51;;;;;;;5.57;3.85;;;;;;;;;;4979310;28;20120;-90
2022/09/13 10:21:16;;;;;;;5.22;3.83;;;;;;;;;;4990799;28;20057;-87
2022/09/13 10:23:42;;;;;;;5.90;3.50;;;;;;;;;;5005978;28;20417;-87
2022/09/13 10:26:13;;;;;;;7.15;4.18;;;;;;;;;;4997798;28;20507;-88
2022/09/13 10:29:19;;;;;;;5.55;3.55;;;;;;;;;;5004285;28;20389;-87
2022/09/13 10:31:52;;;;;;;56.08;8.95;;;;;;;;;;4963444;28;20118;-87
2022/09/13 10:34:21;;;;;;;48.25;8.75;;;;;;;;;;4941657;28;20141;-87
2022/09/13 10:37:00;;;;;;;7.65;4.38;;;;;;;;;;4932882;28;20129;-87
2022/09/13 10:39:27;;;;;;;6.38;4.47;;;;;;;;;;4941782;28;20042;-88
2022/09/13 10:42:05;;;;;;;8.20;4.72;;;;;;;;;;4927173;28;20713;-86
2022/09/13 10:44:38;;;;;;;7.43;4.50;;;;;;;;;;4934070;28;20153;-86
2022/09/13 10:47:10;;;;;;;6.32;4.35;;;;;;;;;;4914599;28;20039;-87
2022/09/13 10:49:51;;;;;;;6.47;4.20;;;;;;;;;;4911636;28;20046;-88
2022/09/13 10:52:31;;;;;;;7.35;4.55;;;;;;;;;;4926000;28;20046;-87
2022/09/13 10:55:30;;;;;;;5.90;4.03;;;;;;;;;;4942982;28;20046;-84
2022/09/13 10:58:01;;;;;;;5.90;4.20;;;;;;;;;;4927413;28;20031;-85
2022/09/13 11:00:51;;;;;;;6.25;4.40;;;;;;;;;;4941184;28;20047;-86
2022/09/13 11:03:38;;;;;;;6.75;4.38;;;;;;;;;;4971418;28;20034;-86
2022/09/13 11:06:23;;;;;;;7.43;5.05;;;;;;;;;;4995123;28;20044;-85
2022/09/13 11:09:07;;;;;;;8.30;5.38;;;;;;;;;;5019769;28;20084;-86
2022/09/13 11:11:39;;;;;;;8.63;5.88;;;;;;;;;;4995054;28;20040;-85
2022/09/13 11:14:38;;;;;;;9.63;6.40;;;;;;;;;;4988635;28;20434;-85
2022/09/13 11:17:16;;;;;;;12.60;6.45;;;;;;;;;;5004961;28;20588;-86
2022/09/13 11:20:11;;;;;;;9.60;6.72;;;;;;;;;;4994737;28;20405;-86
2022/09/13 11:23:06;;;;;;;9.65;7.47;;;;;;;;;;5014393;28;20034;-85
2022/09/13 11:25:56;;;;;;;14.38;8.40;;;;;;;;;;4993893;28;20045;-85
2022/09/13 11:28:53;;;;;;;12.75;7.93;;;;;;;;;;5019987;28;20042;-86
2022/09/13 11:31:37;;;;;;;11.80;8.27;;;;;;;;;;4982753;28;20091;-86
2022/09/13 11:34:27;;;;;;;11.60;8.38;;;;;;;;;;4987326;28;20038;-86
2022/09/13 11:37:17;;;;;;;14.18;9.20;;;;;;;;;;4997240;28;20052;-86
2022/09/13 11:39:56;;;;;;;14.00;9.40;;;;;;;;;;5005587;28;20424;-86
2022/09/13 11:42:49;;;;;;;16.60;10.70;;;;;;;;;;4987380;28;22698;-84
2022/09/13 11:45:14;;;;;;;16.30;9.82;;;;;;;;;;5003506;28;20103;-83
2022/09/13 11:48:02;;;;;;;15.82;9.60;;;;;;;;;;5004320;28;20443;-83
2022/09/13 11:50:54;;;;;;;16.17;10.15;;;;;;;;;;5002508;28;20042;-82
2022/09/13 11:53:34;;;;;;;14.40;9.93;;;;;;;;;;5003858;28;20067;-84
2022/09/13 11:56:04;;;;;;;12.02;9.55;;;;;;;;;;5019409;28;20374;-82
2022/09/13 11:58:51;;;;;;;14.25;10.18;;;;;;;;;;4986247;28;20068;-85
2022/09/13 12:01:22;;;;;;;15.30;10.10;;;;;;;;;;4987096;28;20172;-84
2022/09/13 12:03:56;;;;;;;13.40;8.60;;;;;;;;;;5005092;28;20113;-86
2022/09/13 12:06:26;;;;;;;12.75;8.88;;;;;;;;;;5008794;28;20038;-84
2022/09/13 12:08:55;;;;;;;11.95;8.63;;;;;;;;;;4997963;28;20045;-86
2022/09/13 12:11:25;;;;;;;11.80;8.60;;;;;;;;;;4988625;28;20180;-84
2022/09/13 12:13:57;;;;;;;12.85;8.38;;;;;;;;;;4984339;28;20100;-84
2022/09/13 12:17:13;;;;;;;12.70;8.80;;;;;;;;;;4990889;28;20045;-85
2022/09/13 12:20:01;;;;;;;12.57;8.43;;;;;;;;;;4978345;28;20037;-86
2022/09/13 12:22:31;;;;;;;12.23;8.75;;;;;;;;;;4933638;28;20101;-82
2022/09/13 12:25:12;;;;;;;12.52;7.82;;;;;;;;;;4997631;28;20104;-82
2022/09/13 12:35:07;;;;;;;15.73;8.80;;;;;;;;;;4965851;28;20098;-82
2022/09/13 12:51:54;;;;;;;;;;;;;;;;;;;;;
2022/09/13 12:58:25;;;;;;;11.63;8.45;;;;;;;;;;4956054;28;20058;-83
2022/09/13 13:15:37;;;;;;;12.38;8.05;;;;;;;;;;1580946;23;20355;-83
2022/09/13 13:18:44;;;;;;;13.40;8.02;;;;;;;;;;4988425;28;20398;-83
2022/09/13 13:22:03;;;;;;;10.73;7.95;;;;;;;;;;4987934;28;20034;-83
2022/09/13 13:24:31;;;;;;;13.65;7.68;;;;;;;;;;4935963;28;20379;-81
2022/09/13 13:27:36;;;;;;;10.55;7.25;;;;;;;;;;4978807;28;20496;-83
2022/09/13 13:30:33;;;;;;;10.85;8.38;;;;;;;;;;4970750;28;20518;-82
2022/09/13 13:33:15;;;;;;;13.73;8.23;;;;;;;;;;4999418;28;20044;-82
2022/09/13 13:35:51;;;;;;;11.63;8.10;;;;;;;;;;4982476;28;20581;-84
2022/09/13 13:39:12;;;;;;;11.70;8.63;;;;;;;;;;4987986;28;20496;-85
2022/09/13 13:45:21;;;;;;;11.75;8.13;;;;;;;;;;4858980;29;20051;-83
2022/09/13 13:48:28;;;;;;;12.07;8.35;;;;;;;;;;4902423;29;20047;-84
2022/09/13 13:51:32;;;;;;;13.73;8.02;;;;;;;;;;4878236;29;20047;-83
2022/09/13 13:54:19;;;;;;;12.48;8.70;;;;;;;;;;4840407;29;20421;-82
2022/09/13 13:56:46;;;;;;;;;;;;;;;;;;4817228;29;20086;-82
2022/09/13 13:59:32;;;;;;;;;;;;;;;;;;4823835;29;19916;-82
2022/09/13 14:02:00;;;;;;;12.13;8.20;;;;;;;;;;4831290;29;19920;-82
2022/09/13 14:04:34;;;;;;;11.52;8.23;;;;;;;;;;4846845;29;20036;-82
2022/09/13 14:07:09;;;;;;;13.30;8.35;;;;;;;;;;4861205;29;20069;-81
2022/09/13 14:09:46;;;;;;;12.13;7.97;;;;;;;;;;4828304;29;20516;-81
2022/09/13 14:12:36;;;;;;;11.73;8.30;;;;;;;;;;4855738;29;20489;-81
2022/09/13 14:15:22;;;;;;;12.82;9.50;;;;;;;;;;4855187;29;20057;-82
2022/09/13 14:18:05;;;;;;;12.10;8.40;;;;;;;;;;4841049;29;20435;-81
2022/09/13 14:20:30;;;;;;;11.27;8.13;;;;;;;;;;4907971;28;20038;-82
2022/09/13 14:23:17;;;;;;;10.82;7.40;;;;;;;;;;4990424;28;20033;-83
2022/09/13 14:25:42;;;;;;;11.75;7.68;;;;;;;;;;4992765;28;20040;-84
2022/09/13 14:28:08;;;;;;;10.90;7.63;;;;;;;;;;4991767;28;20120;-82
2022/09/13 14:30:35;;;;;;;12.95;8.52;;;;;;;;;;4977522;28;20036;-82
2022/09/13 14:33:04;;;;;;;11.88;7.47;;;;;;;;;;4985064;28;20100;-82
2022/09/13 14:35:35;;;;;;;10.65;8.18;;;;;;;;;;5004205;28;20068;-81
2022/09/13 14:38:19;;;;;;;10.20;8.18;;;;;;;;;;5001491;28;20477;-81
2022/09/13 14:41:00;;;;;;;12.90;8.10;;;;;;;;;;5017898;28;20037;-81
2022/09/13 14:43:27;;;;;;;12.15;7.18;;;;;;;;;;5001977;28;20120;-81
2022/09/13 14:46:20;;;;;;;10.38;8.30;;;;;;;;;;4999577;28;20658;-82
2022/09/13 14:49:20;;;;;;;;;;;;;;;;;;;;;
2022/09/13 14:51:49;;;;;;;11.02;7.75;;;;;;;;;;4993185;28;20574;-82
2022/09/13 14:54:20;;;;;;;10.55;7.68;;;;;;;;;;5002686;28;20397;-81
2022/09/13 14:56:52;;;;;;;11.60;7.45;;;;;;;;;;4986134;28;20049;-81
2022/09/13 14:59:44;;;;;;;11.85;7.68;;;;;;;;;;5001011;28;20038;-81
2022/09/13 15:02:17;;;;;;;11.75;7.82;;;;;;;;;;5006186;28;20038;-82
2022/09/13 15:04:45;;;;;;;10.50;6.90;;;;;;;;;;4990699;28;20124;-83
2022/09/13 15:07:40;;;;;;;9.07;6.78;;;;;;;;;;4991657;28;20053;-83
2022/09/13 15:10:08;;;;;;;9.77;6.88;;;;;;;;;;4986941;28;20439;-82
2022/09/13 15:12:34;;;;;;;10.68;6.50;;;;;;;;;;5018931;28;20037;-81
2022/09/13 15:15:25;;;;;;;9.07;6.03;;;;;;;;;;5001360;28;20040;-82
2022/09/13 15:17:54;;;;;;;10.82;5.95;;;;;;;;;;5030429;28;20048;-81
2022/09/13 15:20:23;;;;;;;8.27;5.88;;;;;;;;;;5021995;28;20033;-82
2022/09/13 15:22:50;;;;;;;8.07;5.55;;;;;;;;;;5011426;28;20071;-83
2022/09/13 15:25:20;;;;;;;7.38;5.43;;;;;;;;;;5002761;28;20043;-83
2022/09/13 15:27:47;;;;;;;9.35;5.43;;;;;;;;;;5009021;28;20560;-82
2022/09/13 15:30:27;;;;;;;7.38;4.95;;;;;;;;;;5008435;28;20033;-82
2022/09/13 15:33:10;;;;;;;6.53;4.30;;;;;;;;;;5001186;28;20036;-82
2022/09/13 15:35:38;;;;;;;8.05;4.45;;;;;;;;;;5040765;28;20071;-81
2022/09/13 15:38:30;;;;;;;6.60;4.47;;;;;;;;;;5018254;28;20040;-80
2022/09/13 15:41:18;;;;;;;7.03;4.38;;;;;;;;;;5017783;28;20033;-83
2022/09/13 15:43:44;;;;;;;6.35;3.88;;;;;;;;;;5004130;28;20116;-81
2022/09/13 15:46:16;;;;;;;7.25;4.50;;;;;;;;;;5020281;28;20108;-83
2022/09/13 15:48:52;;;;;;;6.78;3.95;;;;;;;;;;5008231;28;20545;-83
2022/09/13 15:51:17;;;;;;;6.53;3.70;;;;;;;;;;5024200;28;20481;-84
2022/09/13 15:53:44;;;;;;;6.65;3.72;;;;;;;;;;5009588;28;20047;-82
2022/09/13 15:56:17;;;;;;;8.95;4.05;;;;;;;;;;5010487;28;20073;-82
2022/09/13 15:58:43;;;;;;;5.57;3.58;;;;;;;;;;5005511;28;20037;-83
2022/09/13 16:01:12;;;;;;;7.93;3.85;;;;;;;;;;5006910;28;20088;-83
2022/09/13 16:03:37;;;;;;;6.15;4.13;;;;;;;;;;5036945;28;20029;-83
2022/09/13 16:06:03;;;;;;;7.20;3.97;;;;;;;;;;5009490;28;20040;-84
2022/09/13 16:08:29;;;;;;;5.90;3.60;;;;;;;;;;5025364;28;20037;-84
2022/09/13 16:10:54;;;;;;;5.45;3.58;;;;;;;;;;5014207;28;20037;-85
2022/09/13 16:13:22;;;;;;;7.00;3.95;;;;;;;;;;5027179;28;20050;-84
2022/09/13 16:15:47;;;;;;;5.07;3.40;;;;;;;;;;5002085;28;20029;-84
2022/09/13 16:18:15;;;;;;;6.13;3.67;;;;;;;;;;5021871;28;20029;-85
2022/09/13 16:20:41;;;;;;;7.45;4.00;;;;;;;;;;5013862;28;20104;-84
2022/09/13 16:23:06;;;;;;;6.38;3.42;;;;;;;;;;5010594;28;20789;-84
2022/09/13 16:25:33;;;;;;;6.00;3.33;;;;;;;;;;5005179;28;20037;-84
2022/09/13 16:27:59;;;;;;;4.72;3.53;;;;;;;;;;5023101;28;20584;-84
2022/09/13 16:30:26;;;;;;;4.97;3.50;;;;;;;;;;5012206;28;20039;-84
2022/09/13 16:32:55;;;;;;;5.70;3.58;;;;;;;;;;5022538;28;20033;-84
2022/09/13 16:35:28;;;;;;;5.70;3.53;;;;;;;;;;5010912;28;20054;-84
2022/09/13 16:37:53;;;;;;;6.97;3.20;;;;;;;;;;5028177;28;20061;-84
2022/09/13 16:40:19;;;;;;;6.18;3.35;;;;;;;;;;5027858;28;20051;-84
2022/09/13 16:42:45;;;;;;;5.43;3.30;;;;;;;;;;5021756;28;20030;-85
2022/09/13 16:45:10;;;;;;;5.70;3.60;;;;;;;;;;5005080;28;20033;-84
2022/09/13 16:47:36;;;;;;;5.25;3.65;;;;;;;;;;5010886;28;20068;-83
2022/09/13 16:50:03;;;;;;;5.53;3.20;;;;;;;;;;5023225;28;20029;-85